sensor_id;sensor_type;location;lat;lon;timestamp;pressure;altitude;pressure_sealevel;temperature;humidity
46412;BME280;32113;42.012;24.870;2023-05-09T00:02:04;99374.81;;;16.46;74.93
46412;BME280;32113;42.012;24.870;2023-05-09T00:04:30;99378.16;;;16.49;75.62
46412;BME280;32113;42.012;24.870;2023-05-09T00:06:56;99375.78;;;16.41;75.26
46412;BME280;32113;42.012;24.870;2023-05-09T00:09:21;99375.66;;;16.46;75.43
46412;BME280;32113;42.012;24.870;2023-05-09T00:11:47;99370.69;;;16.38;75.71
46412;BME280;32113;42.012;24.870;2023-05-09T00:14:12;99379.25;;;16.42;75.34
46412;BME280;32113;42.012;24.870;2023-05-09T00:16:38;99382.00;;;16.36;75.04
46412;BME280;32113;42.012;24.870;2023-05-09T00:19:03;99378.56;;;16.35;75.32
46412;BME280;32113;42.012;24.870;2023-05-09T00:21:29;99378.38;;;16.41;75.13
46412;BME280;32113;42.012;24.870;2023-05-09T00:23:54;99378.28;;;16.14;75.68
46412;BME280;32113;42.012;24.870;2023-05-09T00:26:19;99372.19;;;16.15;76.75
46412;BME280;32113;42.012;24.870;2023-05-09T00:28:46;99379.97;;;16.15;76.78
46412;BME280;32113;42.012;24.870;2023-05-09T00:31:11;99382.72;;;16.09;77.43
46412;BME280;32113;42.012;24.870;2023-05-09T00:33:37;99381.94;;;16.07;76.78
46412;BME280;32113;42.012;24.870;2023-05-09T00:36:02;99378.28;;;16.14;76.72
46412;BME280;32113;42.012;24.870;2023-05-09T00:38:28;99383.22;;;16.22;76.85
46412;BME280;32113;42.012;24.870;2023-05-09T00:40:53;99381.38;;;16.27;76.51
46412;BME280;32113;42.012;24.870;2023-05-09T00:43:18;99383.91;;;16.29;76.42
46412;BME280;32113;42.012;24.870;2023-05-09T00:45:43;99381.47;;;16.24;77.08
46412;BME280;32113;42.012;24.870;2023-05-09T00:48:09;99383.19;;;16.24;76.89
46412;BME280;32113;42.012;24.870;2023-05-09T00:50:35;99383.19;;;16.24;77.35
46412;BME280;32113;42.012;24.870;2023-05-09T00:53:00;99379.84;;;16.20;77.03
46412;BME280;32113;42.012;24.870;2023-05-09T00:55:25;99379.66;;;16.26;77.41
46412;BME280;32113;42.012;24.870;2023-05-09T00:57:51;99377.91;;;16.28;76.91
46412;BME280;32113;42.012;24.870;2023-05-09T01:00:16;99370.91;;;16.31;77.13
46412;BME280;32113;42.012;24.870;2023-05-09T01:02:43;99376.91;;;16.33;76.68
46412;BME280;32113;42.012;24.870;2023-05-09T01:05:08;99384.13;;;16.21;76.42
46412;BME280;32113;42.012;24.870;2023-05-09T01:22:51;99391.38;;;16.10;76.90
46412;BME280;32113;42.012;24.870;2023-05-09T01:30:36;99393.69;;;16.19;76.70
46412;BME280;32113;42.012;24.870;2023-05-09T01:33:03;99394.63;;;16.17;75.93
46412;BME280;32113;42.012;24.870;2023-05-09T01:35:30;99398.09;;;16.15;76.52
46412;BME280;32113;42.012;24.870;2023-05-09T01:37:57;99394.47;;;16.21;76.08
46412;BME280;32113;42.012;24.870;2023-05-09T01:40:23;99400.63;;;16.17;75.83
46412;BME280;32113;42.012;24.870;2023-05-09T01:42:57;99394.41;;;16.24;75.42
46412;BME280;32113;42.012;24.870;2023-05-09T01:45:24;99399.56;;;16.26;76.17
46412;BME280;32113;42.012;24.870;2023-05-09T01:47:50;99400.47;;;16.23;76.70
46412;BME280;32113;42.012;24.870;2023-05-09T01:50:17;99396.81;;;16.31;75.72
46412;BME280;32113;42.012;24.870;2023-05-09T01:52:42;99396.75;;;16.34;75.41
46412;BME280;32113;42.012;24.870;2023-05-09T01:55:12;99395.88;;;16.33;75.02
46412;BME280;32113;42.012;24.870;2023-05-09T01:57:37;99408.94;;;16.30;75.07
46412;BME280;32113;42.012;24.870;2023-05-09T02:00:03;99401.31;;;16.24;75.35
46412;BME280;32113;42.012;24.870;2023-05-09T02:02:31;99399.56;;;16.26;75.73
46412;BME280;32113;42.012;24.870;2023-05-09T02:04:57;99410.72;;;16.26;75.55
46412;BME280;32113;42.012;24.870;2023-05-09T02:07:23;99408.06;;;16.29;75.47
46412;BME280;32113;42.012;24.870;2023-05-09T02:09:49;99408.16;;;16.26;75.76
46412;BME280;32113;42.012;24.870;2023-05-09T02:12:14;99409.59;;;16.05;76.08
46412;BME280;32113;42.012;24.870;2023-05-09T02:14:39;99409.38;;;16.13;75.39
46412;BME280;32113;42.012;24.870;2023-05-09T02:17:04;99409.25;;;16.18;75.42
46412;BME280;32113;42.012;24.870;2023-05-09T02:19:33;99417.88;;;16.18;75.07
46412;BME280;32113;42.012;24.870;2023-05-09T02:21:59;99417.06;;;16.16;74.77
46412;BME280;32113;42.012;24.870;2023-05-09T02:24:24;99420.56;;;16.15;74.26
46412;BME280;32113;42.012;24.870;2023-05-09T02:26:50;99414.47;;;16.16;73.50
46412;BME280;32113;42.012;24.870;2023-05-09T02:29:15;99413.75;;;16.11;73.48
46412;BME280;32113;42.012;24.870;2023-05-09T02:31:43;99422.50;;;16.07;73.96
46412;BME280;32113;42.012;24.870;2023-05-09T02:34:11;99412.31;;;16.00;74.15
46412;BME280;32113;42.012;24.870;2023-05-09T02:36:37;99425.16;;;16.03;74.42
46412;BME280;32113;42.012;24.870;2023-05-09T02:39:03;99426.06;;;16.02;74.84
46412;BME280;32113;42.012;24.870;2023-05-09T02:41:28;99433.91;;;15.99;75.11
46412;BME280;32113;42.012;24.870;2023-05-09T02:43:54;99434.78;;;15.98;75.30
46412;BME280;32113;42.012;24.870;2023-05-09T02:46:19;99426.94;;;16.01;75.11
46412;BME280;32113;42.012;24.870;2023-05-09T02:48:44;99426.00;;;16.04;73.87
46412;BME280;32113;42.012;24.870;2023-05-09T02:51:10;99431.44;;;15.95;74.12
46412;BME280;32113;42.012;24.870;2023-05-09T02:53:35;99433.19;;;15.93;74.00
46412;BME280;32113;42.012;24.870;2023-05-09T02:56:00;99432.38;;;15.90;74.08
46412;BME280;32113;42.012;24.870;2023-05-09T02:58:26;99429.88;;;15.87;74.78
46412;BME280;32113;42.012;24.870;2023-05-09T03:00:51;99434.97;;;15.90;75.12
46412;BME280;32113;42.012;24.870;2023-05-09T03:03:16;99429.25;;;15.77;74.89
46412;BME280;32113;42.012;24.870;2023-05-09T03:05:42;99436.19;;;15.75;75.13
46412;BME280;32113;42.012;24.870;2023-05-09T03:08:07;99438.78;;;15.75;75.32
46412;BME280;32113;42.012;24.870;2023-05-09T03:10:33;99443.00;;;15.80;75.47
46412;BME280;32113;42.012;24.870;2023-05-09T03:12:58;99448.25;;;15.76;75.16
46412;BME280;32113;42.012;24.870;2023-05-09T03:15:23;99449.19;;;15.74;75.62
46412;BME280;32113;42.012;24.870;2023-05-09T03:17:48;99451.69;;;15.77;75.71
46412;BME280;32113;42.012;24.870;2023-05-09T03:20:14;99459.38;;;15.80;75.55
46412;BME280;32113;42.012;24.870;2023-05-09T03:22:39;99453.44;;;15.76;75.30
46412;BME280;32113;42.012;24.870;2023-05-09T03:25:05;99457.69;;;15.79;75.75
46412;BME280;32113;42.012;24.870;2023-05-09T03:27:30;99473.09;;;15.82;75.35
46412;BME280;32113;42.012;24.870;2023-05-09T03:29:55;99467.06;;;15.83;75.73
46412;BME280;32113;42.012;24.870;2023-05-09T03:32:21;99469.56;;;15.86;75.68
46412;BME280;32113;42.012;24.870;2023-05-09T03:34:46;99472.97;;;15.88;75.46
46412;BME280;32113;42.012;24.870;2023-05-09T03:37:12;99473.81;;;15.89;75.41
46412;BME280;32113;42.012;24.870;2023-05-09T03:39:37;99474.63;;;15.91;75.27
46412;BME280;32113;42.012;24.870;2023-05-09T03:42:02;99476.34;;;15.90;75.14
46412;BME280;32113;42.012;24.870;2023-05-09T03:44:27;99475.38;;;15.96;75.49
46412;BME280;32113;42.012;24.870;2023-05-09T03:46:53;99473.59;;;15.98;75.52
46412;BME280;32113;42.012;24.870;2023-05-09T03:49:18;99477.97;;;15.96;75.28
46412;BME280;32113;42.012;24.870;2023-05-09T03:51:43;99478.00;;;15.93;75.33
46412;BME280;32113;42.012;24.870;2023-05-09T03:54:08;99483.38;;;15.85;74.96
46412;BME280;32113;42.012;24.870;2023-05-09T03:56:34;99479.06;;;15.86;75.13
46412;BME280;32113;42.012;24.870;2023-05-09T03:58:59;99481.66;;;15.86;75.24
46412;BME280;32113;42.012;24.870;2023-05-09T04:01:25;99484.16;;;15.89;75.65
46412;BME280;32113;42.012;24.870;2023-05-09T04:03:50;99485.00;;;15.89;76.50
46412;BME280;32113;42.012;24.870;2023-05-09T04:06:16;99484.16;;;15.89;76.22
46412;BME280;32113;42.012;24.870;2023-05-09T04:08:41;99482.34;;;15.93;76.34
46412;BME280;32113;42.012;24.870;2023-05-09T04:11:06;99485.78;;;15.93;76.00
46412;BME280;32113;42.012;24.870;2023-05-09T04:13:32;99484.91;;;15.94;76.32
46412;BME280;32113;42.012;24.870;2023-05-09T04:15:58;99484.09;;;15.94;76.80
46412;BME280;32113;42.012;24.870;2023-05-09T04:18:23;99486.63;;;15.95;75.88
46412;BME280;32113;42.012;24.870;2023-05-09T04:20:48;99482.31;;;15.94;76.24
46412;BME280;32113;42.012;24.870;2023-05-09T04:23:13;99484.88;;;15.96;76.33
46412;BME280;32113;42.012;24.870;2023-05-09T04:25:39;99481.31;;;16.00;76.14
46412;BME280;32113;42.012;24.870;2023-05-09T04:28:04;99481.47;;;15.95;76.21
46412;BME280;32113;42.012;24.870;2023-05-09T04:30:29;99483.91;;;16.00;76.35
46412;BME280;32113;42.012;24.870;2023-05-09T04:32:55;99483.81;;;16.05;75.67
46412;BME280;32113;42.012;24.870;2023-05-09T04:35:20;99490.78;;;16.01;75.49
46412;BME280;32113;42.012;24.870;2023-05-09T04:37:46;99491.84;;;15.94;75.99
46412;BME280;32113;42.012;24.870;2023-05-09T04:40:11;99487.41;;;15.99;76.54
46412;BME280;32113;42.012;24.870;2023-05-09T04:42:37;99491.63;;;16.03;76.00
46412;BME280;32113;42.012;24.870;2023-05-09T04:45:02;99489.09;;;16.00;76.28
46412;BME280;32113;42.012;24.870;2023-05-09T04:47:28;99493.34;;;16.02;75.57
46412;BME280;32113;42.012;24.870;2023-05-09T04:49:53;99483.91;;;16.00;74.91
46412;BME280;32113;42.012;24.870;2023-05-09T04:52:18;99488.06;;;16.07;75.17
46412;BME280;32113;42.012;24.870;2023-05-09T04:54:44;99490.63;;;16.09;75.36
46412;BME280;32113;42.012;24.870;2023-05-09T04:57:09;99494.03;;;16.09;75.04
46412;BME280;32113;42.012;24.870;2023-05-09T04:59:34;99495.84;;;16.06;75.02
46412;BME280;32113;42.012;24.870;2023-05-09T05:02:00;99494.16;;;16.05;75.33
46412;BME280;32113;42.012;24.870;2023-05-09T05:04:25;99496.66;;;16.08;74.81
46412;BME280;32113;42.012;24.870;2023-05-09T05:06:52;99497.50;;;16.08;74.75
46412;BME280;32113;42.012;24.870;2023-05-09T05:09:17;99497.63;;;16.03;75.07
46412;BME280;32113;42.012;24.870;2023-05-09T05:11:42;99500.16;;;16.05;75.17
46412;BME280;32113;42.012;24.870;2023-05-09T05:14:07;99505.25;;;16.10;75.22
46412;BME280;32113;42.012;24.870;2023-05-09T05:16:33;99501.03;;;16.06;75.34
46412;BME280;32113;42.012;24.870;2023-05-09T05:18:58;99503.66;;;16.04;75.52
46412;BME280;32113;42.012;24.870;2023-05-09T05:21:23;99506.03;;;16.12;74.68
46412;BME280;32113;42.012;24.870;2023-05-09T05:23:48;99509.53;;;16.11;74.90
46412;BME280;32113;42.012;24.870;2023-05-09T05:26:14;99505.25;;;16.10;74.95
46412;BME280;32113;42.012;24.870;2023-05-09T05:28:39;99510.38;;;16.11;74.45
46412;BME280;32113;42.012;24.870;2023-05-09T05:31:04;99506.28;;;16.02;74.79
46412;BME280;32113;42.012;24.870;2023-05-09T05:33:30;99502.19;;;15.94;74.04
46412;BME280;32113;42.012;24.870;2023-05-09T05:35:55;99506.63;;;15.87;73.83
46412;BME280;32113;42.012;24.870;2023-05-09T05:38:20;99505.91;;;15.82;74.05
46412;BME280;32113;42.012;24.870;2023-05-09T05:40:45;99517.22;;;15.77;74.30
46412;BME280;32113;42.012;24.870;2023-05-09T05:43:11;99522.41;;;15.77;74.37
46412;BME280;32113;42.012;24.870;2023-05-09T05:45:36;99527.59;;;15.76;73.87
46412;BME280;32113;42.012;24.870;2023-05-09T05:48:01;99523.34;;;15.73;74.28
46412;BME280;32113;42.012;24.870;2023-05-09T05:50:27;99531.13;;;15.72;74.59
46412;BME280;32113;42.012;24.870;2023-05-09T05:52:52;99533.00;;;15.67;73.84
46412;BME280;32113;42.012;24.870;2023-05-09T05:55:17;99532.19;;;15.65;74.24
46412;BME280;32113;42.012;24.870;2023-05-09T05:57:43;99521.94;;;15.60;74.20
46412;BME280;32113;42.012;24.870;2023-05-09T06:00:08;99522.78;;;15.62;74.21
46412;BME280;32113;42.012;24.870;2023-05-09T06:02:39;99527.28;;;15.52;74.14
46412;BME280;32113;42.012;24.870;2023-05-09T06:05:06;99522.25;;;15.47;74.70
46412;BME280;32113;42.012;24.870;2023-05-09T06:07:31;99517.81;;;15.53;74.36
46412;BME280;32113;42.012;24.870;2023-05-09T06:09:56;99516.88;;;15.55;75.03
46412;BME280;32113;42.012;24.870;2023-05-09T06:12:21;99512.75;;;15.46;74.59
46412;BME280;32113;42.012;24.870;2023-05-09T06:14:47;99517.00;;;15.49;75.51
46412;BME280;32113;42.012;24.870;2023-05-09T06:17:12;99513.66;;;15.45;75.94
46412;BME280;32113;42.012;24.870;2023-05-09T06:19:37;99520.41;;;15.53;76.13
46412;BME280;32113;42.012;24.870;2023-05-09T06:22:02;99520.34;;;15.54;75.18
46412;BME280;32113;42.012;24.870;2023-05-09T06:24:28;99528.16;;;15.53;74.84
46412;BME280;32113;42.012;24.870;2023-05-09T06:26:53;99523.91;;;15.50;75.57
46412;BME280;32113;42.012;24.870;2023-05-09T06:29:18;99529.81;;;15.55;75.96
46412;BME280;32113;42.012;24.870;2023-05-09T06:31:43;99517.59;;;15.62;75.06
46412;BME280;32113;42.012;24.870;2023-05-09T06:34:09;99518.59;;;15.56;75.13
46412;BME280;32113;42.012;24.870;2023-05-09T06:36:34;99522.84;;;15.57;75.67
46412;BME280;32113;42.012;24.870;2023-05-09T06:38:59;99528.81;;;15.61;74.79
46412;BME280;32113;42.012;24.870;2023-05-09T06:41:25;99530.75;;;15.53;75.15
46412;BME280;32113;42.012;24.870;2023-05-09T06:43:50;99528.22;;;15.49;75.95
46412;BME280;32113;42.012;24.870;2023-05-09T06:46:16;99511.78;;;15.52;75.21
46412;BME280;32113;42.012;24.870;2023-05-09T06:48:41;99516.88;;;15.55;74.76
46412;BME280;32113;42.012;24.870;2023-05-09T06:51:06;99516.16;;;15.50;75.29
46412;BME280;32113;42.012;24.870;2023-05-09T06:53:32;99521.25;;;15.52;75.80
46412;BME280;32113;42.012;24.870;2023-05-09T06:55:57;99523.09;;;15.46;76.45
46412;BME280;32113;42.012;24.870;2023-05-09T06:58:23;99530.78;;;15.51;75.73
46412;BME280;32113;42.012;24.870;2023-05-09T07:00:48;99535.94;;;15.51;75.55
46412;BME280;32113;42.012;24.870;2023-05-09T07:03:14;99534.06;;;15.58;75.32
46412;BME280;32113;42.012;24.870;2023-05-09T07:05:40;99537.44;;;15.60;75.34
46412;BME280;32113;42.012;24.870;2023-05-09T07:08:05;99531.31;;;15.64;75.21
46412;BME280;32113;42.012;24.870;2023-05-09T07:10:30;99524.34;;;15.68;74.72
46412;BME280;32113;42.012;24.870;2023-05-09T07:12:56;99528.56;;;15.72;74.60
46412;BME280;32113;42.012;24.870;2023-05-09T07:15:21;99534.59;;;15.72;75.34
46412;BME280;32113;42.012;24.870;2023-05-09T07:17:48;99538.69;;;15.81;75.51
46412;BME280;32113;42.012;24.870;2023-05-09T07:20:13;99539.56;;;15.80;75.60
46412;BME280;32113;42.012;24.870;2023-05-09T07:22:39;99534.34;;;15.83;74.29
46412;BME280;32113;42.012;24.870;2023-05-09T07:25:05;99540.28;;;15.87;73.87
46412;BME280;32113;42.012;24.870;2023-05-09T07:27:31;99540.28;;;15.87;74.29
46412;BME280;32113;42.012;24.870;2023-05-09T07:29:56;99538.72;;;15.80;75.04
46412;BME280;32113;42.012;24.870;2023-05-09T07:32:21;99542.91;;;15.85;73.77
46412;BME280;32113;42.012;24.870;2023-05-09T07:34:46;99544.59;;;15.86;73.58
46412;BME280;32113;42.012;24.870;2023-05-09T07:37:12;99536.81;;;15.86;73.99
46412;BME280;32113;42.012;24.870;2023-05-09T07:39:37;99540.22;;;15.90;74.00
46412;BME280;32113;42.012;24.870;2023-05-09T07:42:02;99547.06;;;15.93;74.11
46412;BME280;32113;42.012;24.870;2023-05-09T07:44:28;99539.34;;;15.89;74.11
46412;BME280;32113;42.012;24.870;2023-05-09T07:46:53;99542.72;;;15.93;73.11
46412;BME280;32113;42.012;24.870;2023-05-09T07:49:23;99546.13;;;15.97;73.96
46412;BME280;32113;42.012;24.870;2023-05-09T07:51:48;99542.59;;;15.99;73.28
46412;BME280;32113;42.012;24.870;2023-05-09T07:54:14;99539.91;;;16.02;73.31
46412;BME280;32113;42.012;24.870;2023-05-09T07:56:39;99544.19;;;16.03;73.15
46412;BME280;32113;42.012;24.870;2023-05-09T07:59:04;99547.66;;;16.04;73.30
46412;BME280;32113;42.012;24.870;2023-05-09T08:01:30;99551.31;;;15.97;72.96
46412;BME280;32113;42.012;24.870;2023-05-09T08:03:55;99553.16;;;15.90;73.81
46412;BME280;32113;42.012;24.870;2023-05-09T08:06:20;99553.97;;;15.90;73.76
46412;BME280;32113;42.012;24.870;2023-05-09T08:08:45;99554.78;;;15.94;74.09
46412;BME280;32113;42.012;24.870;2023-05-09T08:11:11;99555.63;;;15.96;73.26
46412;BME280;32113;42.012;24.870;2023-05-09T08:13:36;99555.66;;;15.93;74.17
46412;BME280;32113;42.012;24.870;2023-05-09T08:16:01;99547.84;;;15.96;73.02
46412;BME280;32113;42.012;24.870;2023-05-09T08:18:26;99551.31;;;15.97;72.44
46412;BME280;32113;42.012;24.870;2023-05-09T08:20:52;99549.56;;;15.96;73.11
46412;BME280;32113;42.012;24.870;2023-05-09T08:23:17;99554.72;;;15.97;73.77
46412;BME280;32113;42.012;24.870;2023-05-09T08:25:42;99558.97;;;16.00;72.75
46412;BME280;32113;42.012;24.870;2023-05-09T08:28:07;99556.28;;;16.05;72.66
46412;BME280;32113;42.012;24.870;2023-05-09T08:30:33;99553.88;;;15.97;73.60
46412;BME280;32113;42.012;24.870;2023-05-09T08:32:58;99555.59;;;15.98;73.03
46412;BME280;32113;42.012;24.870;2023-05-09T08:35:23;99553.88;;;15.97;73.64
46412;BME280;32113;42.012;24.870;2023-05-09T08:37:48;99548.72;;;15.97;73.45
46412;BME280;32113;42.012;24.870;2023-05-09T08:40:14;99549.59;;;15.94;73.79
46412;BME280;32113;42.012;24.870;2023-05-09T08:42:40;99553.91;;;15.95;73.26
46412;BME280;32113;42.012;24.870;2023-05-09T08:45:08;99558.22;;;15.93;73.77
46412;BME280;32113;42.012;24.870;2023-05-09T08:47:35;99554.00;;;15.89;74.10
46412;BME280;32113;42.012;24.870;2023-05-09T08:50:01;99554.91;;;15.88;75.16
46412;BME280;32113;42.012;24.870;2023-05-09T08:52:28;99552.31;;;15.88;74.05
46412;BME280;32113;42.012;24.870;2023-05-09T08:54:53;99550.59;;;15.88;74.00
46412;BME280;32113;42.012;24.870;2023-05-09T08:57:19;99551.56;;;15.84;72.56
46412;BME280;32113;42.012;24.870;2023-05-09T08:59:45;99540.50;;;15.77;72.70
46412;BME280;32113;42.012;24.870;2023-05-09T09:02:10;99551.75;;;15.76;73.36
46412;BME280;32113;42.012;24.870;2023-05-09T09:04:38;99551.84;;;15.72;73.18
46412;BME280;32113;42.012;24.870;2023-05-09T09:07:04;99544.94;;;15.72;72.97
46412;BME280;32113;42.012;24.870;2023-05-09T09:09:30;99547.41;;;15.77;73.98
46412;BME280;32113;42.012;24.870;2023-05-09T09:11:57;99536.41;;;15.69;73.53
46412;BME280;32113;42.012;24.870;2023-05-09T09:14:23;99545.13;;;15.65;73.41
46412;BME280;32113;42.012;24.870;2023-05-09T09:16:51;99547.81;;;15.60;73.91
46412;BME280;32113;42.012;24.870;2023-05-09T09:19:18;99546.88;;;15.62;74.79
46412;BME280;32113;42.012;24.870;2023-05-09T09:21:44;99551.97;;;15.67;73.92
46412;BME280;32113;42.012;24.870;2023-05-09T09:24:11;99557.94;;;15.69;74.10
46412;BME280;32113;42.012;24.870;2023-05-09T09:26:47;99557.09;;;15.69;73.79
46412;BME280;32113;42.012;24.870;2023-05-09T09:29:12;99551.03;;;15.70;73.50
46412;BME280;32113;42.012;24.870;2023-05-09T09:31:38;99554.50;;;15.69;73.95
46412;BME280;32113;42.012;24.870;2023-05-09T09:34:07;99555.34;;;15.69;74.20
46412;BME280;32113;42.012;24.870;2023-05-09T09:36:32;99553.59;;;15.71;74.55
46412;BME280;32113;42.012;24.870;2023-05-09T09:38:59;99553.63;;;15.70;74.46
46412;BME280;32113;42.012;24.870;2023-05-09T09:43:55;99559.78;;;15.64;74.64
46412;BME280;32113;42.012;24.870;2023-05-09T09:46:21;99558.88;;;15.65;74.95
46412;BME280;32113;42.012;24.870;2023-05-09T09:48:46;99560.50;;;15.71;74.85
46412;BME280;32113;42.012;24.870;2023-05-09T09:51:16;99557.16;;;15.66;74.21
46412;BME280;32113;42.012;24.870;2023-05-09T09:53:42;99555.47;;;15.65;74.78
46412;BME280;32113;42.012;24.870;2023-05-09T09:56:08;99551.88;;;15.70;74.39
46412;BME280;32113;42.012;24.870;2023-05-09T09:58:34;99553.50;;;15.74;74.08
46412;BME280;32113;42.012;24.870;2023-05-09T10:01:06;99555.25;;;15.74;74.59
46412;BME280;32113;42.012;24.870;2023-05-09T10:03:35;99549.97;;;15.79;74.55
46412;BME280;32113;42.012;24.870;2023-05-09T10:06:01;99545.66;;;15.79;74.48
46412;BME280;32113;42.012;24.870;2023-05-09T10:08:27;99546.22;;;15.90;73.46
46412;BME280;32113;42.012;24.870;2023-05-09T10:10:52;99542.84;;;15.88;73.34
46412;BME280;32113;42.012;24.870;2023-05-09T10:13:17;99543.72;;;15.87;73.84
46412;BME280;32113;42.012;24.870;2023-05-09T10:15:42;99551.56;;;15.84;73.10
46412;BME280;32113;42.012;24.870;2023-05-09T10:18:08;99550.78;;;15.81;73.34
46412;BME280;32113;42.012;24.870;2023-05-09T10:20:34;99552.47;;;15.82;73.56
46412;BME280;32113;42.012;24.870;2023-05-09T10:23:03;99555.97;;;15.81;73.92
46412;BME280;32113;42.012;24.870;2023-05-09T10:25:43;99556.78;;;15.81;73.89
46412;BME280;32113;42.012;24.870;2023-05-09T10:28:11;99549.94;;;15.80;74.30
46412;BME280;32113;42.012;24.870;2023-05-09T10:31:11;99555.88;;;15.84;74.21
46412;BME280;32113;42.012;24.870;2023-05-09T10:33:42;99550.78;;;15.81;74.26
46412;BME280;32113;42.012;24.870;2023-05-09T10:36:10;99558.75;;;15.71;74.51
46412;BME280;32113;42.012;24.870;2023-05-09T10:38:36;99558.66;;;15.74;74.54
46412;BME280;32113;42.012;24.870;2023-05-09T10:41:01;99563.06;;;15.71;75.18
46412;BME280;32113;42.012;24.870;2023-05-09T10:43:27;99560.88;;;15.54;74.17
46412;BME280;32113;42.012;24.870;2023-05-09T10:45:52;99558.13;;;15.61;74.61
46412;BME280;32113;42.012;24.870;2023-05-09T10:48:18;99555.91;;;15.44;74.35
46412;BME280;32113;42.012;24.870;2023-05-09T10:50:44;99554.84;;;15.53;73.85
46412;BME280;32113;42.012;24.870;2023-05-09T10:53:10;99552.22;;;15.55;74.33
46412;BME280;32113;42.012;24.870;2023-05-09T10:58:19;99557.16;;;15.66;74.37
46412;BME280;32113;42.012;24.870;2023-05-09T11:00:48;99554.50;;;15.69;73.15
46412;BME280;32113;42.012;24.870;2023-05-09T11:03:13;99556.97;;;15.73;73.95
46412;BME280;32113;42.012;24.870;2023-05-09T11:05:39;99560.31;;;15.79;74.61
46412;BME280;32113;42.012;24.870;2023-05-09T11:10:49;99556.31;;;15.65;72.92
46412;BME280;32113;42.012;24.870;2023-05-09T11:13:18;99551.78;;;15.35;73.90
46412;BME280;32113;42.012;24.870;2023-05-09T11:18:25;99553.34;;;15.44;74.09
46412;BME280;32113;42.012;24.870;2023-05-09T11:20:50;99548.16;;;15.44;73.62
46412;BME280;32113;42.012;24.870;2023-05-09T11:23:18;99550.06;;;15.36;74.35
46412;BME280;32113;42.012;24.870;2023-05-09T11:25:44;99546.47;;;15.43;74.33
46412;BME280;32113;42.012;24.870;2023-05-09T11:28:10;99546.56;;;15.39;73.51
46412;BME280;32113;42.012;24.870;2023-05-09T11:30:49;99545.53;;;15.46;73.27
46412;BME280;32113;42.012;24.870;2023-05-09T11:33:21;99544.75;;;15.42;75.12
46412;BME280;32113;42.012;24.870;2023-05-09T11:35:57;99540.25;;;15.50;75.61
46412;BME280;32113;42.012;24.870;2023-05-09T11:38:39;99547.94;;;15.54;74.56
46412;BME280;32113;42.012;24.870;2023-05-09T11:41:05;99547.78;;;15.61;75.06
46412;BME280;32113;42.012;24.870;2023-05-09T11:43:31;99553.09;;;15.55;75.20
46412;BME280;32113;42.012;24.870;2023-05-09T11:45:56;99537.31;;;15.28;77.39
46412;BME280;32113;42.012;24.870;2023-05-09T11:48:23;99540.13;;;15.17;78.37
46412;BME280;32113;42.012;24.870;2023-05-09T11:50:48;99542.84;;;15.11;76.70
46412;BME280;32113;42.012;24.870;2023-05-09T11:53:14;99536.94;;;15.06;78.77
46412;BME280;32113;42.012;24.870;2023-05-09T11:55:39;99537.53;;;15.17;78.39
46412;BME280;32113;42.012;24.870;2023-05-09T11:58:05;99539.94;;;15.25;77.58
46412;BME280;32113;42.012;24.870;2023-05-09T12:00:31;99540.66;;;15.32;77.20
46412;BME280;32113;42.012;24.870;2023-05-09T12:02:56;99539.69;;;15.37;77.73
46412;BME280;32113;42.012;24.870;2023-05-09T12:05:21;99544.00;;;15.37;76.95
46412;BME280;32113;42.012;24.870;2023-05-09T12:07:47;99540.66;;;15.32;77.31
46412;BME280;32113;42.012;24.870;2023-05-09T12:10:13;99531.16;;;15.34;78.37
46412;BME280;32113;42.012;24.870;2023-05-09T12:12:43;99531.81;;;15.42;78.30
46412;BME280;32113;42.012;24.870;2023-05-09T12:15:09;99530.94;;;15.43;77.60
46412;BME280;32113;42.012;24.870;2023-05-09T12:17:34;99537.06;;;15.39;78.21
46412;BME280;32113;42.012;24.870;2023-05-09T12:20:00;99528.66;;;15.29;77.31
46412;BME280;32113;42.012;24.870;2023-05-09T12:22:28;99527.25;;;15.14;77.77
46412;BME280;32113;42.012;24.870;2023-05-09T12:24:54;99527.63;;;14.97;78.73
46412;BME280;32113;42.012;24.870;2023-05-09T12:27:20;99521.50;;;15.01;78.30
46412;BME280;32113;42.012;24.870;2023-05-09T12:29:45;99518.63;;;15.15;78.11
46412;BME280;32113;42.012;24.870;2023-05-09T12:32:15;99520.34;;;15.16;78.16
46412;BME280;32113;42.012;24.870;2023-05-09T12:34:41;99514.03;;;15.28;76.98
46412;BME280;32113;42.012;24.870;2023-05-09T12:37:15;99512.22;;;15.32;78.42
46412;BME280;32113;42.012;24.870;2023-05-09T12:39:42;99512.44;;;15.22;78.83
46412;BME280;32113;42.012;24.870;2023-05-09T12:42:11;99517.97;;;15.05;77.21
46412;BME280;32113;42.012;24.870;2023-05-09T12:44:37;99519.56;;;15.13;78.49
46412;BME280;32113;42.012;24.870;2023-05-09T12:47:02;99508.03;;;15.26;77.80
46412;BME280;32113;42.012;24.870;2023-05-09T12:49:28;99509.88;;;15.21;77.16
46412;BME280;32113;42.012;24.870;2023-05-09T12:51:55;99509.78;;;15.26;78.04
46412;BME280;32113;42.012;24.870;2023-05-09T12:54:27;99504.34;;;15.38;76.43
46412;BME280;32113;42.012;24.870;2023-05-09T12:56:53;99512.75;;;15.46;75.97
46412;BME280;32113;42.012;24.870;2023-05-09T12:59:22;99506.56;;;15.14;77.00
46412;BME280;32113;42.012;24.870;2023-05-09T13:01:51;99505.53;;;15.23;76.69
46412;BME280;32113;42.012;24.870;2023-05-09T13:04:18;99499.00;;;15.06;77.74
46412;BME280;32113;42.012;24.870;2023-05-09T13:07:06;99498.94;;;15.09;77.94
46412;BME280;32113;42.012;24.870;2023-05-09T13:09:31;99494.75;;;15.04;77.94
46412;BME280;32113;42.012;24.870;2023-05-09T13:11:58;99492.38;;;14.94;80.20
46412;BME280;32113;42.012;24.870;2023-05-09T13:14:23;99489.94;;;14.87;79.38
46412;BME280;32113;42.012;24.870;2023-05-09T13:16:48;99491.56;;;14.92;80.37